Kalaheo, HI

8:48 PM HST on December 28, 2014 (GMT -1000)
Kalaeloa (John Rodgers Field) | Change Station
CLOSE
Current Station
Airport
Location: Kalaeloa,
Elevation: 49 ft
Nearby Weather Stations

Elev 49 ft 21.31 °N, 158.07 °W | Updated 55 minutes ago

Clear
Clear
68 °F
Feels Like 68 °F
N
5
Wind Variable Wind from Variable

Today
High -- | Low -- °F
--% Chance of Precip.
Yesterday
High -- | Low -- °F
Precip. -- in
7:15 AM 6:04 PM
First Quarter, 56% visible
Pressure 29.97 in
Visibility 10.0 miles
Clouds Clear
Dew Point 56 °F
Humidity 65%
Rainfall 0.00 in
Snow Depth Not available.
UV 0 out of 12
Pollen Not available.
Air Quality Not available.
Flu Activity Not available.
METAR PHJR 290553Z AUTO VRB04KT 10SM CLR 20/13 A2995 RMK AO2 SLP149 T02000133 10261 20194 51013 TSNO

More Conditions Fewer Conditions

Pressure 29.97 in
Visibility 10.0 miles
Clouds Clear
Dew Point 56 °F
Humidity 65%
Rainfall 0.00 in
Snow Depth Not available.
UV 0 out of 12
Pollen Not available.
Air Quality Not available.
Flu Activity Not available.
METAR PHJR 290553Z AUTO VRB04KT 10SM CLR 20/13 A2995 RMK AO2 SLP149 T02000133 10261 20194 51013 TSNO

More Conditions Fewer Conditions

10-Day Weather Forecast

Almanac

Astronomy

Dec. 28, 2014 Rise Set
Actual Time
Civil Twilight
Nautical Twilight
Astronomical Twilight
Moon
Length of Visible Light
Length of Day
Tomorrow will be .
, % of the Moon is Illuminated

Today's Extremes

State Highs State Lows

Community

WunderPhotos

Upload Photos

1,781,546 photos uploaded!

WunderBlogs® & News

Nearby

Air Quality

  Air Quality AQ Index Pollutant
Not available.

Snow Depth

Station Depth Elevation

Earthquake Activity

City Distance Mag. Time & Date
Minimum magnitude displayed is 2.5.

Coastal Water Temperatures

Place Temperature

Nearby Weather Stations